Time;durP1;ratioP1;P1;durP2;ratioP2;P2;SDS_P1;SDS_P2;PMS_P1;PMS_P2;Temp;Humidity;BMP_temperature;BMP_pressure;BME280_temperature;BME280_humidity;BME280_pressure;Samples;Min_cycle;Max_cycle;Signal;HPM_P1;HPM_P2
2023/12/11 00:00:19;;;;;;;17.90;7.10;;;1.30;1.00;;;;;;5201533;28;20033;-35
2023/12/11 00:02:53;;;;;;;12.27;6.38;;;1.20;1.00;;;;;;5205668;28;20033;-35
2023/12/11 00:05:30;;;;;;;12.23;5.70;;;1.20;1.00;;;;;;5205801;28;20029;-35
2023/12/11 00:08:04;;;;;;;10.55;5.65;;;1.10;1.00;;;;;;5200275;28;20029;-35
2023/12/11 00:10:37;;;;;;;10.25;5.18;;;1.00;1.00;;;;;;5200734;28;20213;-35
2023/12/11 00:13:08;;;;;;;11.85;6.25;;;0.90;1.00;;;;;;5197875;28;20326;-35
2023/12/11 00:15:40;;;;;;;13.95;6.30;;;0.90;1.00;;;;;;5205649;28;20026;-35
2023/12/11 00:18:11;;;;;;;13.93;7.50;;;0.80;1.00;;;;;;5189711;28;20367;-35
2023/12/11 00:20:45;;;;;;;15.27;6.88;;;0.90;1.00;;;;;;5206718;28;20025;-35
2023/12/11 00:23:19;;;;;;;;;;;0.90;1.00;;;;;;5201926;28;20029;-35
2023/12/11 00:25:50;;;;;;;14.00;6.10;;;1.00;1.00;;;;;;5205748;28;19909;-35
2023/12/11 00:28:27;;;;;;;10.55;5.97;;;1.00;1.00;;;;;;5197429;28;20044;-35
2023/12/11 00:30:59;;;;;;;13.05;5.65;;;1.10;1.00;;;;;;5182266;28;20369;-35
2023/12/11 00:33:30;;;;;;;17.40;6.65;;;1.20;1.00;;;;;;5186911;28;20033;-36
2023/12/11 00:36:04;;;;;;;12.13;6.60;;;1.30;1.00;;;;;;5187667;28;20025;-35
2023/12/11 00:38:36;;;;;;;16.15;6.45;;;1.40;1.00;;;;;;5194046;28;20040;-35
2023/12/11 00:41:10;;;;;;;10.85;6.50;;;1.60;1.00;;;;;;5203265;28;20036;-35
2023/12/11 00:43:41;;;;;;;11.68;6.35;;;1.70;1.00;;;;;;5201914;28;20040;-35
2023/12/11 00:46:23;;;;;;;10.02;5.22;;;1.70;1.00;;;;;;5198985;28;20029;-35
2023/12/11 00:48:55;;;;;;;12.10;6.10;;;1.80;1.00;;;;;;5186279;28;20034;-35
2023/12/11 00:51:31;;;;;;;11.88;7.50;;;1.80;1.00;;;;;;5189334;28;20038;-35
2023/12/11 00:54:03;;;;;;;13.77;7.07;;;1.80;1.00;;;;;;5195559;28;20033;-36
2023/12/11 00:56:34;;;;;;;10.30;5.53;;;1.90;1.00;;;;;;5189681;28;20044;-35
2023/12/11 00:59:05;;;;;;;16.27;5.38;;;1.80;1.00;;;;;;5205434;28;20033;-35
2023/12/11 01:01:38;;;;;;;11.43;6.68;;;1.90;1.00;;;;;;5217099;28;20037;-35
2023/12/11 01:04:14;;;;;;;11.25;6.10;;;1.90;1.00;;;;;;5209819;28;20033;-35
2023/12/11 01:06:47;;;;;;;13.57;6.88;;;1.80;1.00;;;;;;5190635;28;20037;-35
2023/12/11 01:09:18;;;;;;;12.93;5.80;;;1.90;1.00;;;;;;5197098;28;20038;-35
2023/12/11 01:11:54;;;;;;;11.27;6.05;;;1.90;1.00;;;;;;5204529;28;20052;-35
2023/12/11 01:14:28;;;;;;;9.75;5.47;;;2.00;1.00;;;;;;5205199;28;20039;-35
2023/12/11 01:17:02;;;;;;;12.45;6.22;;;1.90;1.00;;;;;;5202999;28;20059;-35
2023/12/11 01:19:41;;;;;;;10.23;5.55;;;1.90;1.00;;;;;;5209379;28;20037;-35
2023/12/11 01:22:12;;;;;;;10.35;6.05;;;1.90;1.00;;;;;;5211298;28;20360;-35
2023/12/11 01:24:44;;;;;;;10.88;5.40;;;1.80;1.00;;;;;;5210407;28;20359;-35
2023/12/11 01:27:18;;;;;;;11.02;5.93;;;1.70;1.00;;;;;;5207639;28;20041;-35
2023/12/11 01:29:49;;;;;;;11.93;5.67;;;1.70;1.00;;;;;;5192982;28;20044;-35
2023/12/11 01:32:23;;;;;;;14.85;6.55;;;1.70;1.00;;;;;;5189808;28;20040;-35
2023/12/11 01:34:57;;;;;;;11.00;6.22;;;1.70;1.00;;;;;;5220459;28;20029;-35
2023/12/11 01:37:33;;;;;;;17.13;6.60;;;1.60;1.00;;;;;;5207600;28;20026;-35
2023/12/11 01:40:06;;;;;;;17.15;6.72;;;1.60;1.00;;;;;;5203766;28;20034;-35
2023/12/11 01:42:37;;;;;;;11.07;6.07;;;1.60;1.00;;;;;;5189615;28;20359;-35
2023/12/11 01:45:09;;;;;;;15.68;7.57;;;1.70;1.00;;;;;;5190685;28;21480;-35
2023/12/11 01:47:40;;;;;;;12.85;6.93;;;1.80;1.00;;;;;;5191461;28;20044;-35
2023/12/11 01:50:12;;;;;;;16.92;7.53;;;1.90;1.00;;;;;;5214864;28;20061;-35
2023/12/11 01:52:47;;;;;;;13.15;8.63;;;1.90;1.00;;;;;;5200846;28;20361;-35
2023/12/11 01:55:21;;;;;;;17.77;7.30;;;2.00;1.00;;;;;;5184625;28;20025;-35
2023/12/11 01:57:55;;;;;;;15.38;8.07;;;2.00;1.00;;;;;;5199931;28;20034;-35
2023/12/11 02:00:29;;;;;;;;;;;1.90;1.00;;;;;;5176549;28;20059;-35
2023/12/11 02:03:03;;;;;;;13.93;6.53;;;1.90;1.00;;;;;;5208794;28;20231;-35
2023/12/11 02:05:34;;;;;;;11.48;7.25;;;1.70;1.00;;;;;;5187103;28;20360;-35
2023/12/11 02:08:05;;;;;;;12.55;6.75;;;1.70;1.00;;;;;;5200486;28;20050;-35
2023/12/11 02:10:36;;;;;;;14.40;7.38;;;1.60;1.00;;;;;;5192283;28;20261;-35
2023/12/11 02:13:11;;;;;;;12.13;7.28;;;1.70;1.00;;;;;;5184742;28;20460;-35
2023/12/11 02:15:46;;;;;;;10.10;7.13;;;1.70;1.00;;;;;;5175989;28;20029;-35
2023/12/11 02:18:18;;;;;;;13.25;7.20;;;1.70;1.00;;;;;;5194427;28;20052;-35
2023/12/11 02:20:49;;;;;;;12.30;8.35;;;1.70;1.00;;;;;;5166747;28;20037;-35
2023/12/11 02:23:47;;;;;;;21.38;8.52;;;1.80;1.00;;;;;;5187002;28;20313;-35
2023/12/11 02:26:21;;;;;;;16.95;7.18;;;1.80;1.00;;;;;;5179054;28;20045;-35
2023/12/11 02:28:52;;;;;;;18.13;8.10;;;1.90;1.00;;;;;;5194436;28;20051;-35
2023/12/11 02:31:26;;;;;;;16.65;8.20;;;1.90;1.00;;;;;;5195547;28;20037;-35
2023/12/11 02:33:57;;;;;;;17.13;8.38;;;2.00;1.00;;;;;;5197880;28;20033;-35
2023/12/11 02:36:31;;;;;;;14.80;8.15;;;2.00;1.00;;;;;;5199221;28;20194;-35
2023/12/11 02:39:05;;;;;;;24.52;10.63;;;2.10;1.00;;;;;;5188655;28;20052;-35
2023/12/11 02:41:36;;;;;;;18.58;8.75;;;2.20;1.00;;;;;;5195926;28;20038;-35
2023/12/11 02:44:07;;;;;;;17.08;8.65;;;2.10;1.00;;;;;;5199150;28;20037;-35
2023/12/11 02:46:42;;;;;;;15.13;8.32;;;1.90;1.00;;;;;;5194713;28;20029;-35
2023/12/11 02:49:16;;;;;;;14.43;7.75;;;1.70;1.00;;;;;;5187999;28;20041;-35
2023/12/11 02:51:50;;;;;;;14.82;8.57;;;1.80;1.00;;;;;;5188760;28;20478;-35
2023/12/11 02:54:23;;;;;;;11.13;7.82;;;1.70;1.00;;;;;;5199005;28;20217;-35
2023/12/11 02:56:54;;;;;;;19.77;8.63;;;1.70;1.00;;;;;;5196192;28;20033;-35
2023/12/11 02:59:31;;;;;;;14.07;7.90;;;1.80;1.00;;;;;;5205101;28;20343;-35
2023/12/11 03:02:03;;;;;;;14.93;7.85;;;1.90;1.00;;;;;;5192876;28;20056;-35
2023/12/11 03:04:34;;;;;;;20.05;8.18;;;1.90;1.00;;;;;;5196579;28;20033;-35
2023/12/11 03:07:05;;;;;;;16.45;7.82;;;2.00;1.00;;;;;;5197773;28;20056;-35
2023/12/11 03:09:42;;;;;;;14.80;7.72;;;2.10;1.00;;;;;;5194627;28;20222;-35
2023/12/11 03:12:13;;;;;;;13.63;7.57;;;2.10;1.00;;;;;;5186525;28;20524;-35
2023/12/11 03:14:48;;;;;;;13.77;7.20;;;2.10;1.00;;;;;;5197611;28;20113;-35
2023/12/11 03:17:21;;;;;;;15.88;8.70;;;2.10;1.00;;;;;;5193879;28;20029;-35
2023/12/11 03:19:53;;;;;;;14.20;7.60;;;2.20;1.00;;;;;;5190524;28;20343;-35
2023/12/11 03:22:29;;;;;;;14.32;7.85;;;2.30;1.00;;;;;;5181288;28;20256;-35
2023/12/11 03:25:04;;;;;;;16.88;7.40;;;2.30;1.00;;;;;;5192894;28;20028;-36
2023/12/11 03:27:38;;;;;;;15.57;8.57;;;2.20;1.00;;;;;;5183701;28;20038;-35
2023/12/11 03:30:09;;;;;;;14.53;7.23;;;2.40;1.00;;;;;;5184677;28;20145;-35
2023/12/11 03:32:41;;;;;;;10.90;6.32;;;2.40;1.00;;;;;;5182388;28;20274;-35
2023/12/11 03:35:14;;;;;;;11.48;6.50;;;2.40;1.00;;;;;;5179647;28;20353;-38
2023/12/11 03:37:45;;;;;;;15.85;5.95;;;2.50;1.00;;;;;;5197342;28;20221;-34
2023/12/11 03:40:19;;;;;;;14.35;7.90;;;2.50;1.00;;;;;;5187002;28;20033;-39
2023/12/11 03:42:50;;;;;;;12.53;7.03;;;2.60;1.00;;;;;;5181743;28;20260;-35
2023/12/11 03:45:21;;;;;;;14.70;7.57;;;2.60;1.00;;;;;;5185205;28;20270;-45
2023/12/11 03:47:55;;;;;;;14.75;6.05;;;2.70;1.00;;;;;;5195224;28;20238;-46
2023/12/11 03:50:27;;;;;;;9.73;5.55;;;2.80;1.00;;;;;;5192624;28;20057;-46
2023/12/11 03:53:16;;;;;;;10.25;6.07;;;2.80;1.00;;;;;;5188554;28;20641;-46
2023/12/11 03:55:53;;;;;;;15.38;5.50;;;2.70;1.00;;;;;;5200580;28;20512;-50
2023/12/11 03:58:27;;;;;;;9.95;5.63;;;2.70;1.00;;;;;;5179499;28;20362;-50
2023/12/11 04:00:58;;;;;;;8.88;5.30;;;2.60;1.00;;;;;;5192879;28;20044;-54
2023/12/11 04:03:32;;;;;;;11.48;5.15;;;2.60;1.00;;;;;;5187864;28;20236;-51
2023/12/11 04:06:06;;;;;;;11.15;5.47;;;2.60;1.00;;;;;;5205792;28;20046;-52
2023/12/11 04:08:44;;;;;;;9.82;6.15;;;2.60;1.00;;;;;;5193978;28;20201;-52
2023/12/11 04:11:17;;;;;;;16.23;6.70;;;2.60;1.00;;;;;;5206852;28;20037;-52
2023/12/11 04:13:51;;;;;;;13.57;7.15;;;2.60;1.00;;;;;;5197653;28;20036;-53
2023/12/11 04:16:25;;;;;;;11.32;6.00;;;2.70;1.00;;;;;;5194869;28;20044;-52
2023/12/11 04:18:59;;;;;;;;;;;2.70;1.00;;;;;;5198161;28;20028;-50
2023/12/11 04:21:33;;;;;;;11.43;6.50;;;2.60;1.00;;;;;;5210263;28;19915;-51
2023/12/11 04:24:07;;;;;;;15.90;6.65;;;2.50;1.00;;;;;;5191603;28;20237;-50
2023/12/11 04:26:38;;;;;;;12.48;6.93;;;2.30;1.00;;;;;;5197926;28;20199;-51
2023/12/11 04:29:09;;;;;;;16.20;6.82;;;2.30;1.00;;;;;;5198719;28;20214;-51
2023/12/11 04:31:41;;;;;;;17.58;7.45;;;2.10;1.00;;;;;;5191240;28;20136;-51
2023/12/11 04:34:18;;;;;;;13.63;7.40;;;1.90;1.00;;;;;;5187681;28;20029;-50
2023/12/11 04:36:50;;;;;;;13.38;7.75;;;1.80;1.00;;;;;;5197958;28;20333;-51
2023/12/11 04:39:22;;;;;;;15.60;7.30;;;1.80;1.00;;;;;;5181468;28;20333;-51
2023/12/11 04:41:55;;;;;;;13.88;7.55;;;1.80;1.00;;;;;;5178654;28;20956;-51
2023/12/11 04:44:26;;;;;;;14.23;7.78;;;1.80;1.00;;;;;;5186155;28;20283;-50
2023/12/11 04:46:58;;;;;;;15.93;8.70;;;1.80;1.00;;;;;;5194364;28;20253;-50
2023/12/11 04:49:29;;;;;;;15.82;8.10;;;1.80;1.00;;;;;;5197146;28;20036;-50
2023/12/11 04:52:06;;;;;;;13.63;7.57;;;1.90;1.00;;;;;;5191190;28;20021;-50
2023/12/11 04:54:37;;;;;;;14.05;8.20;;;2.00;1.00;;;;;;5191388;28;20043;-49
2023/12/11 04:57:08;;;;;;;17.90;9.15;;;2.10;1.00;;;;;;5197684;28;20044;-49
2023/12/11 04:59:43;;;;;;;16.80;9.25;;;2.10;1.00;;;;;;5196656;28;20259;-49
2023/12/11 05:02:14;;;;;;;15.75;9.20;;;2.10;1.00;;;;;;5189225;28;20355;-49
2023/12/11 05:04:47;;;;;;;19.95;10.48;;;2.10;1.00;;;;;;5185472;28;20052;-49
2023/12/11 05:07:18;;;;;;;16.83;9.50;;;2.00;1.00;;;;;;5194550;28;20188;-49
2023/12/11 05:09:50;;;;;;;18.30;9.75;;;1.90;1.00;;;;;;5197629;28;20033;-50
2023/12/11 05:12:21;;;;;;;20.25;9.98;;;2.00;1.00;;;;;;5192556;28;20040;-50
2023/12/11 05:14:52;;;;;;;18.65;10.88;;;2.00;1.00;;;;;;5186714;28;20399;-50
2023/12/11 05:17:24;;;;;;;18.90;10.35;;;2.00;1.00;;;;;;5192086;28;20034;-50
2023/12/11 05:19:57;;;;;;;20.75;10.27;;;1.90;1.00;;;;;;5177425;28;20281;-50
2023/12/11 05:22:31;;;;;;;21.80;11.93;;;1.90;1.00;;;;;;5186909;28;20029;-50
2023/12/11 05:25:11;;;;;;;19.50;11.00;;;1.90;1.00;;;;;;5195888;28;20195;-51
2023/12/11 05:27:43;;;;;;;23.08;11.20;;;1.90;1.00;;;;;;5196647;28;20029;-50
2023/12/11 05:30:14;;;;;;;23.42;12.45;;;1.80;1.00;;;;;;5193513;28;20035;-48
2023/12/11 05:32:52;;;;;;;24.40;12.15;;;1.80;1.00;;;;;;5186996;28;20482;-48
2023/12/11 05:35:26;;;;;;;20.80;10.27;;;1.90;1.00;;;;;;5184857;28;21351;-48
2023/12/11 05:37:59;;;;;;;19.08;11.60;;;1.90;1.00;;;;;;5191502;28;20037;-50
2023/12/11 05:40:36;;;;;;;21.45;12.57;;;2.10;1.00;;;;;;5202005;28;20321;-50
2023/12/11 05:43:09;;;;;;;20.55;11.63;;;2.10;1.00;;;;;;5167615;28;20033;-47
2023/12/11 05:45:46;;;;;;;19.80;12.43;;;2.20;1.00;;;;;;5176217;28;20048;-47
2023/12/11 05:48:21;;;;;;;26.05;12.57;;;2.40;1.00;;;;;;5194111;28;20045;-47
2023/12/11 05:50:53;;;;;;;25.05;11.60;;;2.40;1.00;;;;;;5195643;28;20029;-47
2023/12/11 05:53:24;;;;;;;22.92;12.05;;;2.50;1.00;;;;;;5197004;28;20124;-47
2023/12/11 05:55:55;;;;;;;21.85;12.45;;;2.50;1.00;;;;;;5188163;28;20041;-47
2023/12/11 05:58:31;;;;;;;19.63;9.82;;;2.50;1.00;;;;;;5195233;28;20305;-47
2023/12/11 06:01:04;;;;;;;21.15;10.60;;;2.40;1.00;;;;;;5193325;28;20048;-47
2023/12/11 06:03:35;;;;;;;19.95;11.57;;;2.30;1.00;;;;;;5192252;28;20331;-47
2023/12/11 06:06:15;;;;;;;18.23;11.48;;;2.20;1.00;;;;;;5199895;28;20052;-48
2023/12/11 06:08:50;;;;;;;19.27;10.50;;;2.10;1.00;;;;;;5204421;28;20044;-48
2023/12/11 06:11:24;;;;;;;21.25;11.27;;;2.20;1.00;;;;;;5194709;28;20272;-48
2023/12/11 06:13:55;;;;;;;25.75;10.57;;;2.20;1.00;;;;;;5185709;28;20974;-48
2023/12/11 06:16:29;;;;;;;23.13;11.35;;;2.20;1.00;;;;;;5189533;28;20037;-49
2023/12/11 06:19:00;;;;;;;19.42;10.63;;;2.20;1.00;;;;;;5198774;28;20030;-49
2023/12/11 06:21:34;;;;;;;23.95;11.93;;;2.30;1.00;;;;;;5200006;28;20466;-48
2023/12/11 06:24:10;;;;;;;22.02;11.40;;;2.30;1.00;;;;;;5195044;28;20052;-49
2023/12/11 06:26:44;;;;;;;20.75;11.05;;;2.30;1.00;;;;;;5199487;28;20037;-48
2023/12/11 06:29:18;;;;;;;24.52;10.43;;;2.20;1.00;;;;;;5199937;28;20070;-49
2023/12/11 06:31:49;;;;;;;18.00;10.00;;;2.20;1.00;;;;;;5191840;28;20037;-48
2023/12/11 06:34:20;;;;;;;15.82;9.70;;;2.10;1.00;;;;;;5192968;28;20038;-48
2023/12/11 06:36:52;;;;;;;23.02;11.93;;;2.10;1.00;;;;;;5197348;28;20277;-48
2023/12/11 06:39:25;;;;;;;29.73;13.30;;;2.00;1.00;;;;;;5192708;28;20273;-48
2023/12/11 06:41:56;;;;;;;25.33;13.00;;;1.90;1.00;;;;;;5198708;28;20186;-48
2023/12/11 06:44:30;;;;;;;24.83;13.10;;;1.80;1.00;;;;;;5196921;28;20195;-48
2023/12/11 06:47:04;;;;;;;27.85;12.27;;;1.70;1.00;;;;;;5194976;28;20256;-47
2023/12/11 06:49:37;;;;;;;21.58;12.23;;;1.70;1.00;;;;;;5199994;28;20039;-48
2023/12/11 06:52:09;;;;;;;26.25;13.48;;;1.60;1.00;;;;;;5200771;28;20030;-48
2023/12/11 06:54:41;;;;;;;25.63;12.45;;;1.60;1.00;;;;;;5197795;28;20037;-47
2023/12/11 06:57:12;;;;;;;29.52;14.02;;;1.60;1.00;;;;;;5198189;28;20300;-48
2023/12/11 06:59:43;;;;;;;28.45;14.18;;;1.50;1.00;;;;;;5196328;28;20034;-48
2023/12/11 07:02:17;;;;;;;24.65;14.27;;;1.50;1.00;;;;;;5195026;28;20068;-48
2023/12/11 07:04:51;;;;;;;36.25;14.13;;;1.50;1.00;;;;;;5198215;28;20026;-48
2023/12/11 07:07:22;;;;;;;30.58;15.98;;;1.50;1.00;;;;;;5198366;28;20236;-48
2023/12/11 07:09:54;;;;;;;28.50;13.60;;;1.50;1.00;;;;;;5198003;28;20040;-48
2023/12/11 07:12:25;;;;;;;28.63;13.43;;;1.60;1.00;;;;;;5199282;28;20035;-48
2023/12/11 07:15:01;;;;;;;24.65;13.75;;;1.60;1.00;;;;;;5198030;28;20263;-48
2023/12/11 07:17:32;;;;;;;26.38;14.05;;;1.60;1.00;;;;;;5194763;28;20029;-48
2023/12/11 07:20:07;;;;;;;26.38;12.52;;;1.60;1.00;;;;;;5197596;28;20359;-48
2023/12/11 07:22:39;;;;;;;24.75;12.63;;;1.50;1.00;;;;;;5196728;28;20387;-48
2023/12/11 07:25:13;;;;;;;27.88;13.05;;;1.50;1.00;;;;;;5210531;28;20050;-48
2023/12/11 07:27:44;;;;;;;;;;;1.50;1.00;;;;;;5206897;28;20248;-47
2023/12/11 07:30:15;;;;;;;25.05;15.30;;;1.40;1.00;;;;;;5195718;28;19901;-48
2023/12/11 07:32:47;;;;;;;32.03;15.50;;;1.40;2.70;;;;;;5197360;28;20026;-47
2023/12/11 07:35:20;;;;;;;28.30;14.43;;;1.50;15.90;;;;;;5198075;28;20309;-47
2023/12/11 07:37:51;;;;;;;29.98;15.45;;;1.70;22.60;;;;;;5199619;28;20206;-47
2023/12/11 07:40:25;;;;;;;22.40;13.93;;;1.80;29.20;;;;;;5217919;28;20048;-47
2023/12/11 07:42:56;;;;;;;26.17;14.15;;;1.80;30.80;;;;;;5204718;28;20483;-47
2023/12/11 07:45:28;;;;;;;27.02;13.35;;;1.90;35.40;;;;;;5210509;28;20040;-47
2023/12/11 07:47:59;;;;;;;31.23;15.40;;;2.00;38.40;;;;;;5196345;28;20200;-47
2023/12/11 07:50:33;;;;;;;32.50;15.25;;;2.10;43.90;;;;;;5198901;28;20331;-47
2023/12/11 07:53:05;;;;;;;28.08;16.55;;;2.40;57.90;;;;;;5168160;28;20233;-47
2023/12/11 07:55:38;;;;;;;24.00;14.55;;;2.50;56.70;;;;;;5209519;28;20278;-46
2023/12/11 07:58:10;;;;;;;25.00;15.60;;;2.60;48.50;;;;;;5192938;28;20035;-47
2023/12/11 08:00:42;;;;;;;27.63;15.68;;;2.60;34.40;;;;;;5218151;28;20039;-47
2023/12/11 08:03:13;;;;;;;27.55;14.45;;;2.60;24.80;;;;;;5197793;28;20021;-47
2023/12/11 08:05:44;;;;;;;31.33;15.93;;;2.60;21.30;;;;;;5196146;28;20036;-46
2023/12/11 08:08:18;;;;;;;20.02;12.65;;;2.70;23.60;;;;;;5196201;28;20043;-46
2023/12/11 08:10:49;;;;;;;23.63;14.10;;;2.80;14.90;;;;;;5183365;28;20040;-46
2023/12/11 08:13:23;;;;;;;22.80;13.88;;;2.90;2.10;;;;;;5194703;28;20044;-47
2023/12/11 08:15:54;;;;;;;23.67;14.57;;;3.00;1.00;;;;;;5176078;28;20030;-46
2023/12/11 08:18:25;;;;;;;21.92;14.63;;;3.20;1.00;;;;;;5202487;28;20044;-46
2023/12/11 08:20:57;;;;;;;19.70;12.55;;;3.30;1.00;;;;;;5191243;28;20037;-46
2023/12/11 08:23:28;;;;;;;18.92;11.68;;;3.50;1.00;;;;;;5197085;28;20040;-45
2023/12/11 08:25:59;;;;;;;22.98;12.45;;;3.50;1.00;;;;;;5211237;28;20025;-46
2023/12/11 08:28:32;;;;;;;17.73;10.93;;;3.50;1.00;;;;;;5187689;28;20029;-45
2023/12/11 08:31:04;;;;;;;18.93;10.00;;;3.50;1.00;;;;;;5173800;28;20056;-45
2023/12/11 08:33:38;;;;;;;21.10;11.40;;;3.70;1.00;;;;;;5189459;28;20041;-45
2023/12/11 08:36:09;;;;;;;21.75;12.07;;;3.80;1.00;;;;;;5193135;28;20244;-46
2023/12/11 08:38:41;;;;;;;21.52;11.30;;;3.60;99.90;;;;;;5195636;28;20025;-43
2023/12/11 08:41:12;;;;;;;20.38;10.90;;;3.30;99.90;;;;;;5211152;28;20059;-44
2023/12/11 08:43:44;;;;;;;20.20;11.23;;;3.20;99.90;;;;;;5198031;28;20308;-43
2023/12/11 08:46:22;;;;;;;18.38;10.57;;;2.80;44.50;;;;;;5194954;28;20325;-43
2023/12/11 08:48:56;;;;;;;20.63;11.10;;;2.80;99.90;;;;;;5197105;28;20341;-42
2023/12/11 08:51:28;;;;;;;19.13;11.02;;;2.90;1.00;;;;;;5201725;28;20340;-42
2023/12/11 08:53:59;;;;;;;17.63;9.60;;;3.00;1.00;;;;;;5195675;28;20051;-42
2023/12/11 08:56:30;;;;;;;15.27;9.35;;;3.10;1.00;;;;;;5195699;28;20143;-42
2023/12/11 08:59:04;;;;;;;18.52;10.85;;;3.40;1.00;;;;;;5196613;28;20033;-41
2023/12/11 09:01:35;;;;;;;21.52;11.52;;;3.50;1.00;;;;;;5180740;28;20245;-41
2023/12/11 09:04:09;;;;;;;19.80;11.77;;;3.70;1.00;;;;;;5197005;28;20052;-41
2023/12/11 09:06:41;;;;;;;22.23;11.38;;;3.80;1.00;;;;;;5197371;28;20325;-40
2023/12/11 09:09:17;;;;;;;19.08;11.55;;;3.80;99.90;;;;;;5197310;28;20036;-40
2023/12/11 09:11:48;;;;;;;18.45;10.93;;;4.00;99.90;;;;;;5196300;28;20319;-40
2023/12/11 09:14:20;;;;;;;18.42;10.70;;;4.20;99.90;;;;;;5152541;28;20046;-39
2023/12/11 09:16:51;;;;;;;17.33;10.75;;;4.30;1.00;;;;;;5205808;28;20136;-39
2023/12/11 09:19:25;;;;;;;16.77;10.82;;;4.40;1.00;;;;;;5195228;28;20037;-38
2023/12/11 09:21:56;;;;;;;21.00;10.68;;;4.50;1.00;;;;;;5182393;28;20047;-38
2023/12/11 09:24:27;;;;;;;20.95;11.05;;;4.60;1.00;;;;;;5196092;28;20033;-38
2023/12/11 09:26:59;;;;;;;20.38;11.60;;;4.60;1.00;;;;;;5196231;28;20025;-37
2023/12/11 09:29:35;;;;;;;23.45;11.65;;;4.80;1.00;;;;;;5196533;28;20329;-37
2023/12/11 09:32:06;;;;;;;22.42;12.77;;;4.80;99.90;;;;;;5193722;28;20466;-36
2023/12/11 09:34:37;;;;;;;22.67;11.25;;;4.70;99.90;;;;;;5196187;28;20029;-34
2023/12/11 09:37:09;;;;;;;17.90;11.57;;;4.80;99.90;;;;;;5167391;28;20203;-34
2023/12/11 09:39:42;;;;;;;19.35;12.18;;;5.00;99.90;;;;;;5180328;28;20052;-34
2023/12/11 09:42:14;;;;;;;21.77;11.07;;;5.00;99.90;;;;;;5193507;28;20025;-34
2023/12/11 09:44:48;;;;;;;20.38;11.65;;;5.00;99.90;;;;;;5199659;28;20542;-34
2023/12/11 09:47:29;;;;;;;16.33;10.73;;;4.70;99.90;;;;;;5196927;28;20040;-34
2023/12/11 09:50:02;;;;;;;15.02;10.23;;;4.60;99.90;;;;;;5200305;28;20379;-34
2023/12/11 09:52:38;;;;;;;19.13;11.63;;;4.70;99.90;;;;;;5219836;28;20052;-34
2023/12/11 09:55:10;;;;;;;15.18;10.00;;;4.80;99.90;;;;;;5199192;28;20034;-34
2023/12/11 09:57:42;;;;;;;21.90;11.50;;;5.00;99.90;;;;;;5199322;28;20025;-34
2023/12/11 10:00:14;;;;;;;18.98;10.13;;;5.30;99.90;;;;;;5188190;28;20027;-34
2023/12/11 10:02:50;;;;;;;15.57;10.43;;;5.60;99.90;;;;;;5200119;28;20029;-35
2023/12/11 10:05:25;;;;;;;14.35;10.48;;;6.40;99.90;;;;;;5190616;28;20028;-35
2023/12/11 10:07:57;;;;;;;19.08;9.55;;;7.50;95.80;;;;;;5209477;28;20038;-35
2023/12/11 10:10:33;;;;;;;23.95;11.52;;;8.50;1.00;;;;;;5209467;28;20049;-35
2023/12/11 10:13:05;;;;;;;18.20;11.15;;;9.70;99.90;;;;;;5209185;28;20044;-35
2023/12/11 10:15:37;;;;;;;16.27;10.10;;;10.10;55.30;;;;;;5204891;28;20051;-35
2023/12/11 10:18:12;;;;;;;17.20;10.27;;;10.20;1.00;;;;;;5207882;28;20033;-35
2023/12/11 10:20:52;;;;;;;17.15;10.50;;;9.80;1.00;;;;;;5209217;28;20025;-35
2023/12/11 10:23:26;;;;;;;17.75;10.77;;;9.20;1.00;;;;;;5211418;28;20272;-36
2023/12/11 10:26:06;;;;;;;;;;;9.80;1.00;;;;;;5209841;28;20447;-36
2023/12/11 10:28:41;;;;;;;18.73;11.15;;;10.90;1.00;;;;;;5192434;28;19908;-36
2023/12/11 10:31:12;;;;;;;;;;;12.00;1.00;;;;;;5206723;28;20021;-39
2023/12/11 10:33:52;;;;;;;17.88;11.80;;;11.70;1.00;;;;;;5210801;28;19905;-37
2023/12/11 10:36:24;;;;;;;16.10;10.63;;;11.10;1.00;;;;;;5205291;28;20032;-37
2023/12/11 10:39:08;;;;;;;15.45;10.43;;;10.60;1.00;;;;;;5209191;28;20038;-37
2023/12/11 10:41:39;;;;;;;20.33;11.23;;;9.80;1.00;;;;;;5209283;28;20225;-36
2023/12/11 10:44:32;;;;;;;17.60;11.45;;;9.60;1.00;;;;;;5209545;28;20031;-37
2023/12/11 10:47:06;;;;;;;19.48;11.20;;;9.60;1.00;;;;;;5204248;28;20039;-37
2023/12/11 10:49:40;;;;;;;17.65;10.38;;;9.70;1.00;;;;;;5204154;28;20052;-37
2023/12/11 10:52:12;;;;;;;24.07;12.00;;;9.70;1.00;;;;;;5210805;28;20036;-37
2023/12/11 10:54:48;;;;;;;21.27;12.45;;;9.40;1.00;;;;;;5202470;28;20245;-37
2023/12/11 10:57:26;;;;;;;17.40;10.73;;;10.00;1.00;;;;;;5207912;28;20042;-36
2023/12/11 10:59:59;;;;;;;16.52;10.43;;;9.30;1.00;;;;;;5209132;28;20063;-36
2023/12/11 11:02:32;;;;;;;18.70;11.50;;;9.20;1.00;;;;;;5200201;28;20049;-37
2023/12/11 11:05:05;;;;;;;16.60;11.32;;;9.90;1.00;;;;;;5207545;28;20049;-36
2023/12/11 11:07:46;;;;;;;18.15;10.20;;;10.00;1.00;;;;;;5207025;28;20337;-37
2023/12/11 11:10:17;;;;;;;15.02;10.10;;;10.50;1.00;;;;;;5207272;28;20033;-37
2023/12/11 11:13:11;;;;;;;16.38;9.63;;;11.70;1.00;;;;;;5206638;28;20373;-37
2023/12/11 11:15:50;;;;;;;13.02;9.60;;;13.00;1.00;;;;;;5204092;28;20021;-37
2023/12/11 11:18:21;;;;;;;15.68;9.50;;;14.60;1.00;;;;;;5187761;28;20037;-36
2023/12/11 11:21:22;;;;;;;13.02;9.35;;;15.40;1.00;;;;;;5206627;28;20064;-36
2023/12/11 11:23:53;;;;;;;14.38;9.85;;;15.60;99.90;;;;;;5186550;28;20249;-36
2023/12/11 11:26:40;;;;;;;15.02;9.68;;;15.50;99.90;;;;;;5222062;28;20037;-36
2023/12/11 11:29:41;;;;;;;14.55;9.07;;;14.80;99.90;;;;;;5200712;28;20029;-36
2023/12/11 11:32:15;;;;;;;14.13;9.55;;;15.00;1.00;;;;;;5203625;28;20035;-36
2023/12/11 11:34:49;;;;;;;13.05;9.18;;;14.50;1.00;;;;;;5207163;28;20221;-36
2023/12/11 11:37:55;;;;;;;13.35;9.60;;;13.50;1.00;;;;;;5206318;28;20037;-35
2023/12/11 11:40:35;;;;;;;16.17;9.40;;;11.80;1.00;;;;;;5183157;28;20314;-35
2023/12/11 11:43:08;;;;;;;15.45;9.20;;;12.00;1.00;;;;;;5182998;28;20328;-36
2023/12/11 11:45:41;;;;;;;15.35;9.73;;;13.10;1.00;;;;;;5174534;28;20053;-36
2023/12/11 11:48:12;;;;;;;14.50;9.75;;;14.10;15.50;;;;;;5173614;28;20613;-36
2023/12/11 11:50:55;;;;;;;19.00;9.50;;;13.80;1.00;;;;;;5174407;28;20037;-36
2023/12/11 11:53:31;;;;;;;14.00;8.50;;;12.80;1.00;;;;;;5166735;28;20352;-35
2023/12/11 11:56:05;;;;;;;13.40;8.70;;;12.20;1.00;;;;;;5174072;28;20463;-36
2023/12/11 11:58:38;;;;;;;14.25;9.65;;;12.80;1.00;;;;;;5166946;28;20206;-36
2023/12/11 12:01:11;;;;;;;12.60;8.88;;;12.50;1.00;;;;;;5153638;28;20339;-35
2023/12/11 12:03:45;;;;;;;13.23;8.45;;;12.20;1.00;;;;;;5171625;28;20326;-36
2023/12/11 12:06:21;;;;;;;13.23;7.43;;;12.00;1.00;;;;;;5157726;28;20069;-36
2023/12/11 12:08:52;;;;;;;17.00;9.15;;;11.90;1.00;;;;;;5173088;28;20033;-36
2023/12/11 12:11:26;;;;;;;13.07;8.55;;;11.50;1.00;;;;;;5172864;28;20308;-36
2023/12/11 12:13:57;;;;;;;11.63;8.35;;;11.00;1.00;;;;;;5179943;28;20041;-36
2023/12/11 12:16:28;;;;;;;13.95;8.27;;;10.60;99.90;;;;;;5208582;28;20428;-36
2023/12/11 12:19:00;;;;;;;11.88;8.45;;;10.30;77.40;;;;;;5196835;28;20039;-36
2023/12/11 12:21:34;;;;;;;9.95;6.97;;;9.80;99.90;;;;;;5202793;28;20028;-36
2023/12/11 12:24:08;;;;;;;11.18;6.55;;;9.50;99.90;;;;;;5196032;28;20017;-36
2023/12/11 12:26:42;;;;;;;10.75;6.78;;;9.40;99.90;;;;;;5217705;28;20036;-35
2023/12/11 12:29:15;;;;;;;11.05;7.28;;;9.20;99.90;;;;;;5206043;28;20037;-36
2023/12/11 12:31:46;;;;;;;10.57;6.85;;;8.90;65.50;;;;;;5193536;28;20101;-35
2023/12/11 12:34:18;;;;;;;13.65;6.72;;;8.80;99.90;;;;;;5195951;28;20030;-36
2023/12/11 12:36:51;;;;;;;12.23;6.95;;;8.70;13.20;;;;;;5197251;28;20037;-36
2023/12/11 12:39:26;;;;;;;10.77;7.53;;;8.70;84.60;;;;;;5197520;28;20025;-36
2023/12/11 12:41:57;;;;;;;10.80;6.82;;;8.70;99.90;;;;;;5196503;28;20492;-36
2023/12/11 12:44:29;;;;;;;13.52;7.60;;;8.70;62.40;;;;;;5195938;28;20041;-36
2023/12/11 12:47:02;;;;;;;10.60;6.82;;;8.70;99.90;;;;;;5192476;28;20029;-36
2023/12/11 12:49:34;;;;;;;12.23;7.70;;;8.60;67.30;;;;;;5194782;28;20232;-36
2023/12/11 12:52:05;;;;;;;12.75;7.53;;;8.60;70.20;;;;;;5200959;28;20350;-36
2023/12/11 12:54:48;;;;;;;10.20;7.57;;;8.60;99.90;;;;;;5195322;28;20233;-36
2023/12/11 12:57:20;;;;;;;9.10;6.28;;;8.70;99.90;;;;;;5188685;28;20037;-36
2023/12/11 12:59:54;;;;;;;9.00;6.50;;;8.80;99.90;;;;;;5192398;28;20052;-36
2023/12/11 13:02:25;;;;;;;10.30;7.22;;;8.80;99.90;;;;;;5190989;28;20029;-36
2023/12/11 13:04:56;;;;;;;9.95;6.40;;;8.80;99.90;;;;;;5183773;28;20044;-36
2023/12/11 13:07:28;;;;;;;11.45;6.97;;;8.70;99.90;;;;;;5182643;28;20481;-36
2023/12/11 13:10:13;;;;;;;10.13;6.28;;;8.70;99.90;;;;;;5186497;28;20041;-36
2023/12/11 13:12:45;;;;;;;12.68;6.40;;;8.50;99.90;;;;;;5197886;28;20306;-36
2023/12/11 13:15:18;;;;;;;12.60;6.95;;;8.30;99.90;;;;;;5197096;28;20033;-36
2023/12/11 13:17:54;;;;;;;11.10;6.63;;;8.20;99.90;;;;;;5198500;28;20025;-36
2023/12/11 13:20:28;;;;;;;11.30;6.43;;;8.10;99.90;;;;;;5193564;28;20318;-36
2023/12/11 13:22:59;;;;;;;14.60;8.05;;;8.10;99.90;;;;;;5197005;28;20040;-36